createdAt,value
2017-02-24T00:00:02.175Z,8
2017-02-24T00:05:01.859Z,8
2017-02-24T00:10:01.633Z,8
2017-02-24T00:15:01.758Z,8.1
2017-02-24T00:20:01.751Z,8.1
2017-02-24T00:25:01.526Z,8.1
2017-02-24T00:30:01.638Z,8.1
2017-02-24T00:35:01.289Z,8.1
2017-02-24T00:40:01.238Z,8.1
2017-02-24T00:45:01.321Z,8.1
2017-02-24T00:50:02.103Z,8.1
2017-02-24T00:55:01.868Z,8.1
2017-02-24T01:00:01.843Z,8.1
2017-02-24T01:05:01.636Z,8.1
2017-02-24T01:10:01.390Z,8.1
2017-02-24T01:15:01.464Z,8.1
2017-02-24T01:20:01.487Z,8.1
2017-02-24T01:25:01.219Z,8.1
2017-02-24T01:30:01.687Z,7.9
2017-02-24T01:35:01.923Z,7.8
2017-02-24T01:40:01.742Z,7.7
2017-02-24T01:45:02.124Z,7.6
2017-02-24T01:50:02.129Z,7.6
2017-02-24T01:55:01.895Z,7.5
2017-02-24T02:00:01.960Z,7.5
2017-02-24T02:05:02.072Z,7.5
2017-02-24T02:10:01.834Z,7.4
2017-02-24T02:15:02.071Z,7.4
2017-02-24T02:20:01.196Z,7.3
2017-02-24T02:25:02.046Z,7.3
2017-02-24T02:30:02.058Z,7.3
2017-02-24T02:35:02.157Z,7.2
2017-02-24T02:40:01.899Z,7.3
2017-02-24T02:45:02.017Z,7.2
2017-02-24T02:50:01.265Z,7.3
2017-02-24T02:55:02.085Z,7.3
2017-02-24T03:00:01.484Z,7.2
2017-02-24T03:05:01.594Z,7.2
2017-02-24T03:10:01.600Z,7.2
2017-02-24T03:15:01.960Z,7.3
2017-02-24T03:20:01.179Z,7.2
2017-02-24T03:25:01.288Z,7.2
2017-02-24T03:30:01.979Z,7.2
2017-02-24T03:35:01.509Z,7.3
2017-02-24T03:40:02.044Z,7.3
2017-02-24T03:45:02.124Z,7.3
2017-02-24T03:50:01.596Z,7.2
2017-02-24T03:55:01.545Z,7.3
2017-02-24T04:00:02.101Z,7.3
2017-02-24T04:05:01.678Z,7.3
2017-02-24T04:10:01.618Z,7.4
2017-02-24T04:15:01.839Z,7.4
2017-02-24T04:20:01.326Z,7.2
2017-02-24T04:25:01.603Z,7.3
2017-02-24T04:30:01.965Z,7.2
2017-02-24T04:35:01.844Z,7.2
2017-02-24T04:40:02.081Z,7.2
2017-02-24T04:45:01.444Z,7.2
2017-02-24T04:50:01.972Z,7.2
2017-02-24T04:55:01.216Z,7.2
2017-02-24T05:00:01.585Z,7.2
2017-02-24T05:05:01.460Z,7.2
2017-02-24T05:10:01.287Z,7.3
2017-02-24T05:15:01.456Z,7.2
2017-02-24T05:20:01.960Z,7.2
2017-02-24T05:25:02.058Z,7.2
2017-02-24T05:30:01.902Z,7.2
2017-02-24T05:35:01.792Z,7.2
2017-02-24T05:40:01.555Z,7.3
2017-02-24T05:45:01.275Z,7.3
2017-02-24T05:50:01.469Z,7.3
2017-02-24T05:55:02.172Z,7.3
2017-02-24T06:00:01.379Z,7.3
2017-02-24T06:05:01.558Z,7.3
2017-02-24T06:10:01.674Z,7.3
2017-02-24T06:15:01.233Z,7.3
2017-02-24T06:20:01.493Z,7.3
2017-02-24T06:25:01.835Z,7.4
2017-02-24T06:30:02.127Z,7.3
2017-02-24T06:35:01.725Z,7.3
2017-02-24T06:40:01.568Z,7.3
2017-02-24T06:45:01.242Z,7.2
2017-02-24T06:50:01.763Z,7.3
2017-02-24T06:55:01.467Z,7.2
2017-02-24T07:00:01.860Z,7.2
2017-02-24T07:05:01.236Z,7.2
2017-02-24T07:10:01.477Z,7.3
2017-02-24T07:15:01.923Z,7.3
2017-02-24T07:20:01.346Z,7.4
2017-02-24T07:25:01.659Z,7.3
2017-02-24T07:30:01.308Z,7.4
2017-02-24T07:35:01.662Z,7.3
2017-02-24T07:40:01.740Z,7.3
2017-02-24T07:45:01.403Z,7.4
2017-02-24T07:50:01.548Z,7.2
2017-02-24T07:55:02.172Z,7.3
2017-02-24T08:00:01.364Z,7.4
2017-02-24T08:05:02.035Z,7.3
2017-02-24T08:10:01.462Z,7.3
2017-02-24T08:15:01.730Z,7.4
2017-02-24T08:20:02.127Z,7.3
2017-02-24T08:25:01.406Z,7.4
2017-02-24T08:30:01.802Z,7.2
2017-02-24T08:35:02.037Z,7.4
2017-02-24T08:40:01.288Z,7.3
2017-02-24T08:45:01.225Z,7.3
2017-02-24T08:50:01.597Z,7.3
2017-02-24T08:55:02.002Z,7.4
2017-02-24T09:00:01.298Z,7.2
2017-02-24T09:05:02.124Z,7.4
2017-02-24T09:10:01.595Z,7.4
2017-02-24T09:15:02.129Z,7.4
2017-02-24T09:20:02.072Z,7.3
2017-02-24T09:25:02.059Z,7.3
2017-02-24T09:30:01.469Z,7.3
2017-02-24T09:35:01.780Z,7.4
2017-02-24T09:40:01.890Z,7.4
2017-02-24T09:45:01.367Z,7.4
2017-02-24T09:50:01.584Z,7.4
2017-02-24T09:55:01.291Z,7.5
2017-02-24T10:00:01.606Z,7.6
2017-02-24T10:05:01.815Z,7.6
2017-02-24T10:10:01.537Z,7.6
2017-02-24T10:15:01.934Z,7.6
2017-02-24T10:20:01.336Z,7.7
2017-02-24T10:25:01.356Z,7.8
2017-02-24T10:30:01.588Z,7.8
2017-02-24T10:35:01.665Z,7.7
2017-02-24T10:40:01.454Z,7.8
2017-02-24T10:45:01.434Z,7.7
2017-02-24T10:50:01.449Z,7.9
2017-02-24T10:55:02.018Z,7.8
2017-02-24T11:00:01.469Z,8
2017-02-24T11:05:02.174Z,7.9
2017-02-24T11:10:02.135Z,7.8
2017-02-24T11:15:02.140Z,7.9
2017-02-24T11:20:02.008Z,8
2017-02-24T11:25:01.971Z,8
2017-02-24T11:30:01.312Z,8
2017-02-24T11:35:01.644Z,8
2017-02-24T11:40:01.705Z,8
2017-02-24T11:45:01.524Z,8.1
2017-02-24T11:50:01.212Z,8
2017-02-24T11:55:01.813Z,8.1
2017-02-24T12:00:01.786Z,8
2017-02-24T12:05:02.171Z,8.1
2017-02-24T12:10:01.790Z,8.2
2017-02-24T12:15:01.296Z,8
2017-02-24T12:20:01.639Z,8.1
2017-02-24T12:25:01.861Z,8.2
2017-02-24T12:30:02.065Z,8.2
2017-02-24T12:35:01.570Z,8.3
2017-02-24T12:40:01.383Z,8.3
2017-02-24T12:45:01.866Z,8.3
2017-02-24T12:50:01.612Z,8.3
2017-02-24T12:55:01.310Z,8.4
2017-02-24T13:00:01.526Z,8.4
2017-02-24T13:05:02.159Z,8.4
2017-02-24T13:10:01.468Z,8.4
2017-02-24T13:15:01.930Z,8.4
2017-02-24T13:20:01.454Z,8.6
2017-02-24T13:25:01.530Z,8.5
2017-02-24T13:30:01.813Z,8.6
2017-02-24T13:35:02.189Z,8.6
2017-02-24T13:40:01.879Z,8.7
2017-02-24T13:45:01.486Z,8.8
2017-02-24T13:50:01.305Z,8.9
2017-02-24T13:55:01.934Z,8.9
2017-02-24T14:00:01.308Z,8.9
2017-02-24T14:05:01.586Z,8.9
2017-02-24T14:10:02.198Z,8.9
2017-02-24T14:15:01.923Z,9
2017-02-24T14:20:02.034Z,8.9
2017-02-24T14:25:01.501Z,8.9
2017-02-24T14:30:01.584Z,8.9
2017-02-24T14:35:01.313Z,8.8
2017-02-24T14:40:01.990Z,8.8
2017-02-24T14:45:02.159Z,8.7
2017-02-24T14:50:01.656Z,8.5
2017-02-24T14:55:01.548Z,8.4
2017-02-24T15:00:01.754Z,8.1
2017-02-24T15:05:02.173Z,7.9
2017-02-24T15:10:01.570Z,7.9
2017-02-24T15:15:01.688Z,7.8
2017-02-24T15:20:01.435Z,7.7
2017-02-24T15:25:01.714Z,7.6
2017-02-24T15:30:01.473Z,7.6
2017-02-24T15:35:01.444Z,7.6
2017-02-24T15:40:01.319Z,7.6
2017-02-24T15:45:01.580Z,7.6
2017-02-24T15:50:01.370Z,7.7
2017-02-24T15:55:01.710Z,7.6
2017-02-24T16:00:01.571Z,7.6
2017-02-24T16:05:01.992Z,7.6
2017-02-24T16:10:01.179Z,7.6
2017-02-24T16:15:01.457Z,7.6
2017-02-24T16:20:01.563Z,7.7
2017-02-24T16:25:01.455Z,7.6
2017-02-24T16:30:01.654Z,7.5
2017-02-24T16:35:01.321Z,7.6
2017-02-24T16:40:02.148Z,7.6
2017-02-24T16:45:01.740Z,7.6
2017-02-24T16:50:01.750Z,7.6
2017-02-24T16:55:01.262Z,7.6
2017-02-24T17:00:01.403Z,7.6
2017-02-24T17:05:01.854Z,7.6
2017-02-24T17:10:01.719Z,7.6
2017-02-24T17:15:01.396Z,7.6
2017-02-24T17:20:01.275Z,7.6
2017-02-24T17:25:01.401Z,7.6
2017-02-24T17:30:02.041Z,7.6
2017-02-24T17:35:01.733Z,7.6
2017-02-24T17:40:01.839Z,7.6
2017-02-24T17:45:01.451Z,7.6
2017-02-24T17:50:01.803Z,7.6
2017-02-24T17:55:01.345Z,7.6
2017-02-24T18:00:02.013Z,7.6
2017-02-24T18:05:01.785Z,7.6
2017-02-24T18:10:01.784Z,7.6
2017-02-24T18:15:01.488Z,7.6
2017-02-24T18:20:02.207Z,7.6
2017-02-24T18:25:01.569Z,7.6
2017-02-24T18:30:01.794Z,7.6
2017-02-24T18:35:01.955Z,7.6
2017-02-24T18:40:02.117Z,7.6
2017-02-24T18:45:01.503Z,7.6
2017-02-24T18:50:01.362Z,7.6
2017-02-24T18:55:01.711Z,7.6
2017-02-24T19:00:01.853Z,7.6
2017-02-24T19:05:01.552Z,7.6
2017-02-24T19:10:01.666Z,7.6
2017-02-24T19:15:01.755Z,7.6
2017-02-24T19:20:02.124Z,7.6
2017-02-24T19:25:01.469Z,7.6
2017-02-24T19:30:01.670Z,7.5
2017-02-24T19:35:01.376Z,7.5
2017-02-24T19:40:01.422Z,7.5
2017-02-24T19:45:02.383Z,7.5
2017-02-24T19:50:01.309Z,7.4
2017-02-24T19:55:01.375Z,7.5
2017-02-24T20:00:02.456Z,7.4
2017-02-24T20:05:01.789Z,7.4
2017-02-24T20:10:01.876Z,7.5
2017-02-24T20:15:01.911Z,7.5
2017-02-24T20:20:01.386Z,7.5
2017-02-24T20:25:01.906Z,7.5
2017-02-24T20:30:01.452Z,7.5
2017-02-24T20:35:01.849Z,7.5
2017-02-24T20:40:01.453Z,7.5
2017-02-24T20:45:02.173Z,7.5
2017-02-24T20:50:01.535Z,7.5
2017-02-24T20:55:01.273Z,7.5
2017-02-24T21:00:01.947Z,7.5
2017-02-24T21:05:01.857Z,7.5
2017-02-24T21:10:02.057Z,7.5
2017-02-24T21:15:02.098Z,7.5
2017-02-24T21:20:01.375Z,7.5
2017-02-24T21:25:01.829Z,7.4
2017-02-24T21:30:02.385Z,7.4
2017-02-24T21:35:01.261Z,7.4
2017-02-24T21:40:01.743Z,7.5
2017-02-24T21:45:02.153Z,7.5
2017-02-24T21:50:01.598Z,7.5
2017-02-24T21:55:01.586Z,7.5
2017-02-24T22:00:02.088Z,7.4
2017-02-24T22:05:01.456Z,7.5
2017-02-24T22:10:01.627Z,7.4
2017-02-24T22:15:02.054Z,7.4
2017-02-24T22:20:01.619Z,7.4
2017-02-24T22:25:01.596Z,7.5
2017-02-24T22:30:01.886Z,7.4
2017-02-24T22:35:01.406Z,7.5
2017-02-24T22:40:01.934Z,7.4
2017-02-24T22:45:01.306Z,7.4
2017-02-24T22:50:01.913Z,7.5
2017-02-24T22:55:01.909Z,7.5
2017-02-24T23:00:02.151Z,7.5
2017-02-24T23:05:01.289Z,7.5
2017-02-24T23:10:02.004Z,7.5
2017-02-24T23:15:01.218Z,7.5
2017-02-24T23:20:01.886Z,7.5
2017-02-24T23:25:01.865Z,7.5
2017-02-24T23:30:01.709Z,7.6
2017-02-24T23:35:01.282Z,7.6
2017-02-24T23:40:02.143Z,7.5
2017-02-24T23:45:02.054Z,7.5
2017-02-24T23:50:01.612Z,7.5
2017-02-24T23:55:01.360Z,7.5
